Time;durP1;ratioP1;P1;durP2;ratioP2;P2;SDS_P1;SDS_P2;PMS_P1;PMS_P2;Temp;Humidity;BMP_temperature;BMP_pressure;BME280_temperature;BME280_humidity;BME280_pressure;Samples;Min_cycle;Max_cycle;Signal;HPM_P1;HPM_P2
2020/12/14 00:01:06;;;;;;;26.50;18.45;;;;;;;6.91;68.88;100405.19;5254365;27;20105;-81
2020/12/14 00:03:33;;;;;;;27.87;18.60;;;;;;;6.99;68.74;100393.03;5234496;27;20128;-82
2020/12/14 00:06:02;;;;;;;29.33;18.80;;;;;;;7.33;67.58;100403.78;5234239;27;20348;-81
2020/12/14 00:08:29;;;;;;;34.17;18.85;;;;;;;7.33;67.73;100401.16;5234111;27;20071;-81
2020/12/14 00:10:55;;;;;;;34.03;21.65;;;;;;;6.99;68.78;100402.63;5253872;27;20072;-82
2020/12/14 00:13:21;;;;;;;32.78;21.73;;;;;;;7.20;68.12;100400.16;5234267;27;20066;-82
2020/12/14 00:15:48;;;;;;;30.37;20.50;;;;;;;7.06;68.52;100417.50;5234608;27;20053;-82
2020/12/14 00:18:15;;;;;;;32.08;20.88;;;;;;;7.21;68.14;100415.00;5234310;27;20070;-80
2020/12/14 00:20:41;;;;;;;33.25;21.83;;;;;;;7.33;67.81;100419.47;5234420;27;20085;-81
2020/12/14 00:23:07;;;;;;;34.22;21.75;;;;;;;7.32;67.93;100422.91;5234289;27;20064;-80
2020/12/14 00:25:34;;;;;;;31.40;20.88;;;;;;;7.42;67.23;100426.50;5253838;27;20100;-80
2020/12/14 00:28:01;;;;;;;30.80;20.62;;;;;;;7.50;67.02;100436.16;5234267;27;20110;-83
2020/12/14 00:30:27;;;;;;;35.50;21.05;;;;;;;7.38;67.32;100436.06;5234443;27;20100;-80
2020/12/14 00:32:54;;;;;;;30.17;19.77;;;;;;;7.36;67.25;100440.37;5234662;27;20533;-81
2020/12/14 00:35:21;;;;;;;29.37;19.77;;;;;;;7.45;67.14;100435.22;5234398;27;20065;-81
2020/12/14 00:37:47;;;;;;;25.65;17.98;;;;;;;7.40;67.29;100441.28;5234357;27;20089;-81
2020/12/14 04:08:36;;;;;;;22.80;13.23;;;;;;;8.34;64.82;100573.63;5284847;27;20058;-86
2020/12/14 04:11:03;;;;;;;24.17;15.82;;;;;;;8.27;65.04;100572.69;5318016;27;20065;-87
2020/12/14 04:13:30;;;;;;;24.85;14.07;;;;;;;8.34;64.75;100569.25;5319635;27;20124;-87
2020/12/14 04:15:56;;;;;;;20.02;13.62;;;;;;;8.32;64.82;100580.56;5299605;27;20821;-86
2020/12/14 04:18:23;;;;;;;24.85;13.25;;;;;;;8.33;64.72;100583.22;5300072;27;20056;-87
2020/12/14 04:20:49;;;;;;;18.55;11.25;;;;;;;8.33;64.64;100595.44;5319348;27;20087;-86
2020/12/14 04:50:55;;;;;;;25.33;15.30;;;;;;;8.14;64.92;100616.22;5272209;26;20097;-87
2020/12/14 04:53:21;;;;;;;23.70;13.70;;;;;;;8.06;65.27;100614.41;5320501;27;20118;-87
2020/12/14 04:55:48;;;;;;;22.65;15.50;;;;;;;8.06;65.16;100620.53;5320432;27;20064;-87
2020/12/14 04:58:14;;;;;;;26.55;17.42;;;;;;;7.82;66.12;100626.41;5300422;27;20158;-87
2020/12/14 05:00:41;;;;;;;29.73;17.80;;;;;;;7.94;65.62;100631.78;5300874;27;20049;-87
2020/12/14 05:03:07;;;;;;;35.58;19.58;;;;;;;7.95;65.61;100633.53;5320197;27;20429;-87
2020/12/14 05:05:34;;;;;;;26.42;16.10;;;;;;;7.78;66.12;100623.78;5300912;27;20108;-86
2020/12/14 05:08:00;;;;;;;29.95;16.98;;;;;;;7.73;66.37;100632.47;5320055;27;20438;-87
2020/12/14 05:10:29;;;;;;;28.10;16.15;;;;;;;7.81;66.15;100634.28;5320459;27;20377;-87
2020/12/14 05:12:55;;;;;;;26.20;15.70;;;;;;;7.74;66.37;100634.22;5319949;27;20072;-86
2020/12/14 05:15:26;;;;;;;25.73;17.85;;;;;;;8.05;65.23;100636.22;5300529;27;20108;-87
2020/12/14 05:18:08;;;;;;;27.27;18.42;;;;;;;7.72;66.16;100640.28;5320300;27;20087;-86
2020/12/14 05:20:34;;;;;;;35.03;20.90;;;;;;;7.84;65.81;100639.53;5320373;27;20089;-87
2020/12/14 05:23:08;;;;;;;30.77;18.73;;;;;;;7.87;65.65;100640.44;5300408;27;20342;-87
2020/12/14 05:25:35;;;;;;;32.05;20.40;;;;;;;7.74;65.97;100647.28;5320353;27;20076;-86
2020/12/14 05:28:13;;;;;;;36.75;21.83;;;;;;;7.83;65.67;100658.72;5300309;27;20083;-88
2020/12/14 05:30:42;;;;;;;28.55;18.45;;;;;;;8.13;64.71;100661.59;5320253;27;20431;-87
2020/12/14 05:33:11;;;;;;;33.08;17.92;;;;;;;7.84;65.40;100665.69;5319953;27;20113;-87
2020/12/14 05:35:43;;;;;;;31.33;20.87;;;;;;;7.93;65.12;100665.78;5300292;27;20068;-87
2020/12/14 05:38:17;;;;;;;31.90;18.98;;;;;;;8.07;64.80;100664.16;5319983;27;20083;-87
2020/12/14 05:40:47;;;;;;;25.45;16.62;;;;;;;8.06;64.83;100661.50;5319902;27;20067;-88
2020/12/14 05:43:16;;;;;;;34.50;19.80;;;;;;;8.12;64.51;100672.94;5300257;27;20117;-87
2020/12/14 05:45:44;;;;;;;26.00;17.60;;;;;;;8.07;64.78;100677.25;5320180;27;20124;-87
2020/12/14 05:48:32;;;;;;;31.42;19.77;;;;;;;8.25;64.26;100687.00;5300132;27;20124;-87
2020/12/14 05:51:03;;;;;;;35.42;21.92;;;;;;;7.94;65.47;100689.34;5319809;27;20096;-87
2020/12/14 05:53:35;;;;;;;42.35;22.48;;;;;;;7.87;65.34;100689.25;5319985;27;20097;-87
2020/12/14 05:56:04;;;;;;;37.90;23.33;;;;;;;8.23;64.36;100691.31;5320306;27;20273;-87
2020/12/14 05:58:31;;;;;;;36.70;20.05;;;;;;;8.09;64.64;100695.56;5300078;27;20057;-87
2020/12/14 06:01:00;;;;;;;26.17;16.23;;;;;;;8.14;64.56;100699.97;5320146;27;20390;-88
2020/12/14 06:03:27;;;;;;;27.87;16.50;;;;;;;7.89;65.20;100700.63;5300101;27;20091;-87
2020/12/14 12:27:06;;;;;;;12.10;8.95;;;;;;;12.47;47.50;100734.38;5182261;27;20124;-86
2020/12/14 12:29:36;;;;;;;12.88;9.13;;;;;;;12.41;46.91;100732.69;5298251;27;20053;-85
2020/12/14 12:32:02;;;;;;;12.00;8.98;;;;;;;12.36;47.26;100733.62;5300826;27;20068;-86
2020/12/14 12:34:31;;;;;;;13.75;10.57;;;;;;;12.50;46.87;100735.25;5300596;27;20110;-86
2020/12/14 12:36:58;;;;;;;14.98;9.88;;;;;;;12.40;47.93;100735.34;5301129;27;20124;-86
2020/12/14 12:39:26;;;;;;;13.95;10.57;;;;;;;12.37;48.09;100736.22;5298152;27;20365;-85
2020/12/14 12:41:53;;;;;;;16.25;11.07;;;;;;;12.34;47.63;100730.12;5299580;27;20451;-85
2020/12/14 12:44:20;;;;;;;13.30;9.68;;;;;;;12.25;47.74;100729.28;5297187;27;20471;-86
2020/12/14 12:46:47;;;;;;;13.65;10.43;;;;;;;12.38;47.92;100735.37;5297970;27;20144;-86
2020/12/14 12:49:13;;;;;;;13.15;9.63;;;;;;;12.12;48.60;100732.00;5297167;27;20069;-85
2020/12/14 12:51:44;;;;;;;12.05;8.90;;;;;;;12.34;47.89;100733.62;5299308;27;20057;-86
2020/12/14 12:54:11;;;;;;;11.98;8.40;;;;;;;11.99;48.17;100737.38;5299312;27;20060;-86
2020/12/14 12:56:38;;;;;;;12.63;8.80;;;;;;;11.95;48.74;100743.53;5298565;27;20080;-86
2020/12/14 12:59:04;;;;;;;14.80;10.65;;;;;;;11.46;49.94;100743.75;5297586;27;20052;-85
2020/12/14 13:01:31;;;;;;;13.45;9.52;;;;;;;11.19;51.37;100746.47;5298307;27;20120;-86
2020/12/14 13:03:57;;;;;;;11.63;8.55;;;;;;;11.62;49.84;100741.03;5297769;27;20337;-86
2020/12/14 15:27:42;;;;;;;21.98;14.27;;;;;;;8.12;62.29;100843.06;5194775;27;20108;-87
2020/12/14 15:30:10;;;;;;;21.48;13.55;;;;;;;8.11;62.32;100856.09;5297619;27;20061;-87
2020/12/14 15:32:37;;;;;;;23.85;14.38;;;;;;;7.85;63.37;100855.78;5296126;27;20062;-86
2020/12/14 15:35:05;;;;;;;19.42;13.60;;;;;;;7.60;64.07;100865.06;5296302;27;20076;-87
2020/12/14 15:37:32;;;;;;;23.15;15.63;;;;;;;8.03;63.21;100868.22;5298203;27;20092;-86
2020/12/14 15:39:59;;;;;;;22.58;15.20;;;;;;;7.71;64.28;100863.47;5297832;27;20081;-87
2020/12/14 15:42:25;;;;;;;27.02;17.30;;;;;;;8.17;62.64;100864.91;5297840;27;20428;-88
2020/12/14 15:44:54;;;;;;;24.35;17.30;;;;;;;8.10;62.86;100875.31;5296771;27;20359;-88
2020/12/14 15:47:20;;;;;;;23.77;16.77;;;;;;;8.48;61.59;100878.38;5297030;27;20066;-88
2020/12/14 15:49:46;;;;;;;21.98;16.62;;;;;;;8.58;61.03;100876.72;5298535;27;20090;-88
2020/12/14 15:52:13;;;;;;;25.30;17.45;;;;;;;9.03;59.76;100876.28;5297224;27;20081;-88
2020/12/14 15:54:39;;;;;;;27.20;18.60;;;;;;;8.94;60.15;100884.06;5297471;27;20095;-88
2020/12/14 15:57:06;;;;;;;26.65;18.52;;;;;;;8.52;61.94;100882.78;5299067;27;20062;-88
2020/12/14 15:59:33;;;;;;;23.65;16.50;;;;;;;7.91;64.12;100877.69;5298710;27;20538;-88
2020/12/14 16:01:59;;;;;;;25.23;17.20;;;;;;;8.23;62.98;100879.81;5298180;27;20141;-88
2020/12/14 16:04:26;;;;;;;24.42;15.50;;;;;;;8.24;62.63;100872.84;5297971;27;20080;-88
2020/12/14 16:06:53;;;;;;;26.65;17.08;;;;;;;8.44;61.60;100878.31;5297899;27;20062;-88
2020/12/14 16:09:20;;;;;;;23.25;16.40;;;;;;;8.35;61.85;100884.28;5298307;27;20103;-87
2020/12/14 16:11:47;;;;;;;27.37;15.52;;;;;;;8.60;60.91;100881.13;5296531;27;20055;-88
2020/12/14 16:14:13;;;;;;;24.90;16.48;;;;;;;8.71;60.64;100875.13;5296438;27;20065;-88
2020/12/14 16:16:40;;;;;;;21.77;16.17;;;;;;;8.45;61.60;100880.09;5296461;27;20114;-88
2020/12/14 16:19:06;;;;;;;22.08;16.08;;;;;;;8.36;62.04;100883.47;5298035;27;20068;-88
2020/12/14 16:21:33;;;;;;;23.87;15.25;;;;;;;8.66;60.95;100882.06;5296120;27;20116;-88
2020/12/14 16:24:00;;;;;;;23.50;16.80;;;;;;;8.81;60.87;100880.44;5296965;27;20784;-88
2020/12/14 16:26:27;;;;;;;24.15;16.08;;;;;;;9.00;60.41;100886.75;5298802;27;20386;-88
2020/12/14 16:28:54;;;;;;;21.62;16.83;;;;;;;8.46;61.61;100889.69;5296896;27;20137;-88
2020/12/14 16:31:20;;;;;;;25.98;17.23;;;;;;;9.06;59.71;100880.66;5299417;27;20060;-87
2020/12/14 16:33:47;;;;;;;25.67;16.83;;;;;;;8.74;60.79;100880.38;5298301;27;20057;-88
2020/12/14 16:36:13;;;;;;;24.40;17.58;;;;;;;8.94;59.85;100884.06;5298127;27;20061;-88
2020/12/14 16:38:40;;;;;;;32.08;17.02;;;;;;;8.97;59.93;100891.97;5298266;27;20053;-88
2020/12/14 16:41:06;;;;;;;25.58;17.10;;;;;;;9.02;60.22;100894.59;5298182;27;20088;-88
2020/12/14 16:43:33;;;;;;;28.52;16.35;;;;;;;9.03;60.50;100886.75;5298317;27;20470;-88
2020/12/14 16:46:01;;;;;;;22.37;16.30;;;;;;;9.33;59.33;100896.59;5298142;27;20065;-88
2020/12/14 16:48:28;;;;;;;24.15;16.65;;;;;;;8.83;60.91;100890.94;5296801;27;20061;-88
2020/12/14 16:50:54;;;;;;;23.25;16.45;;;;;;;8.90;60.60;100898.00;5296925;27;20555;-88
2020/12/14 16:53:21;;;;;;;27.58;18.55;;;;;;;8.91;60.60;100901.47;5298518;27;20077;-87
2020/12/14 16:55:48;;;;;;;24.25;15.60;;;;;;;9.04;60.14;100911.22;5298302;27;20072;-87
2020/12/14 16:58:14;;;;;;;24.58;16.90;;;;;;;9.09;59.84;100910.41;5298511;27;20079;-88
2020/12/14 17:00:42;;;;;;;24.05;17.50;;;;;;;9.25;59.47;100907.91;5296484;27;20067;-88
2020/12/14 17:03:12;;;;;;;21.90;15.02;;;;;;;9.28;59.16;100908.78;5298336;27;20056;-88
2020/12/14 17:05:41;;;;;;;20.73;15.20;;;;;;;9.31;59.01;100916.69;5298139;27;20076;-88
2020/12/14 17:08:08;;;;;;;19.67;14.43;;;;;;;9.21;59.39;100920.12;5298322;27;20120;-88
2020/12/14 17:10:35;;;;;;;21.15;14.77;;;;;;;9.33;59.18;100916.72;5298278;27;20077;-88
2020/12/14 17:13:01;;;;;;;22.75;14.98;;;;;;;9.31;59.05;100916.69;5296708;27;20065;-88
2020/12/14 17:15:28;;;;;;;20.77;14.02;;;;;;;9.28;58.95;100924.53;5296949;27;20067;-88
2020/12/14 17:17:54;;;;;;;25.70;19.33;;;;;;;9.29;59.07;100920.16;5298308;27;20406;-88
2020/12/14 17:20:23;;;;;;;23.65;18.10;;;;;;;9.44;58.65;100929.88;5296489;27;20049;-88
2020/12/14 17:22:50;;;;;;;24.90;20.00;;;;;;;9.49;58.43;100928.19;5296604;27;20061;-88
2020/12/14 17:25:16;;;;;;;23.60;17.20;;;;;;;9.50;58.40;100927.28;5296746;27;20073;-88
2020/12/14 17:27:43;;;;;;;17.87;13.90;;;;;;;9.51;58.30;100929.94;5298057;27;20049;-88
2020/12/14 17:30:10;;;;;;;19.67;14.75;;;;;;;9.59;58.16;100932.63;5298375;27;20076;-88
2020/12/14 17:32:39;;;;;;;21.08;15.05;;;;;;;9.46;58.24;100922.91;5298376;27;20103;-87
2020/12/14 17:35:08;;;;;;;22.75;15.40;;;;;;;9.43;58.35;100928.13;5298027;27;20058;-88
2020/12/14 17:37:36;;;;;;;26.43;15.07;;;;;;;9.39;58.50;100929.88;5296438;27;20072;-88
2020/12/14 17:40:06;;;;;;;24.37;15.60;;;;;;;9.23;58.92;100931.47;5298380;27;20157;-87
2020/12/14 17:42:33;;;;;;;19.95;14.63;;;;;;;9.26;59.04;100933.25;5298074;27;20489;-88
2020/12/14 17:45:00;;;;;;;22.15;15.55;;;;;;;8.81;60.22;100930.22;5297940;27;20331;-88
2020/12/14 17:47:27;;;;;;;23.00;13.77;;;;;;;8.65;60.80;100936.19;5298073;27;20513;-88
2020/12/14 17:50:08;;;;;;;20.88;14.90;;;;;;;7.87;63.03;100932.56;5296954;27;20425;-87
2020/12/14 17:52:34;;;;;;;20.70;15.15;;;;;;;7.64;64.52;100934.84;5296341;27;20114;-87
2020/12/14 17:55:01;;;;;;;20.05;13.55;;;;;;;7.11;66.87;100932.28;5296717;27;20060;-88
2020/12/14 17:57:28;;;;;;;22.37;13.65;;;;;;;7.13;66.83;100938.41;5298277;27;20045;-88
2020/12/14 17:59:56;;;;;;;19.60;13.65;;;;;;;7.30;66.58;100936.09;5296531;27;20052;-88
2020/12/14 18:02:23;;;;;;;20.90;14.27;;;;;;;6.83;68.26;100935.28;5298027;27;20076;-88
2020/12/14 18:04:49;;;;;;;20.12;13.93;;;;;;;7.24;66.84;100932.50;5296637;27;20083;-88
2020/12/14 18:07:28;;;;;;;24.60;16.53;;;;;;;7.55;66.12;100937.34;5296801;27;20067;-88
2020/12/14 18:09:55;;;;;;;24.45;16.65;;;;;;;7.63;65.92;100947.06;5296512;27;20068;-88
2020/12/14 18:12:21;;;;;;;25.75;16.62;;;;;;;7.92;64.93;100933.53;5296377;27;20328;-88
2020/12/14 18:14:48;;;;;;;25.75;18.52;;;;;;;7.78;65.85;100932.44;5298085;27;20124;-88
2020/12/14 18:17:14;;;;;;;28.25;18.10;;;;;;;7.87;65.50;100938.69;5296522;27;20073;-88
2020/12/14 18:19:41;;;;;;;29.02;19.58;;;;;;;8.01;65.13;100940.62;5296694;27;20120;-88
2020/12/14 18:22:09;;;;;;;27.05;19.50;;;;;;;8.04;65.06;100938.03;5296336;27;20183;-88
2020/12/14 18:24:36;;;;;;;31.50;19.83;;;;;;;7.59;66.77;100936.50;5296718;27;20064;-88
2020/12/14 18:27:04;;;;;;;31.50;20.92;;;;;;;7.57;66.36;100930.41;5297908;27;20104;-88
2020/12/14 18:29:30;;;;;;;30.85;21.27;;;;;;;7.77;65.94;100926.34;5296470;27;20112;-88
2020/12/14 19:37:25;;;;;;;32.50;22.83;;;;;;;8.51;63.99;100954.34;5297918;27;20061;-87
2020/12/14 19:40:49;;;;;;;34.45;21.40;;;;;;;8.50;63.93;100954.31;5296604;27;20427;-87
2020/12/14 21:24:19;;;;;;;25.42;16.23;;;;;;;8.29;64.77;100973.25;5299139;27;20063;-88
2020/12/14 21:26:46;;;;;;;21.77;14.87;;;;;;;8.36;64.55;100975.97;5297119;27;20044;-88
2020/12/14 21:29:12;;;;;;;20.75;15.68;;;;;;;8.47;64.43;100983.09;5297451;27;20124;-88
2020/12/14 21:31:39;;;;;;;24.60;17.02;;;;;;;8.58;64.01;100990.22;5298918;27;20061;-87
2020/12/14 21:34:07;;;;;;;27.10;18.45;;;;;;;8.59;63.85;100988.50;5298784;27;20021;-88
2020/12/14 21:36:33;;;;;;;25.80;17.92;;;;;;;8.65;63.71;100988.59;5298928;27;20124;-88
2020/12/14 21:38:59;;;;;;;25.10;17.75;;;;;;;8.79;63.30;100991.34;5298880;27;20101;-88
2020/12/14 21:41:29;;;;;;;27.90;17.50;;;;;;;8.58;63.65;100995.47;5297405;27;20459;-88
2020/12/14 21:43:58;;;;;;;23.70;16.37;;;;;;;8.66;63.45;100999.94;5298807;27;20045;-88
2020/12/14 21:46:25;;;;;;;22.90;16.23;;;;;;;8.77;63.17;100993.06;5297230;27;20044;-88
2020/12/14 21:48:52;;;;;;;23.55;16.95;;;;;;;8.87;62.85;100992.31;5297572;27;20079;-89
2020/12/14 21:51:19;;;;;;;24.35;17.70;;;;;;;8.80;62.89;100995.72;5298700;27;20081;-89
2020/12/14 21:53:45;;;;;;;24.37;17.48;;;;;;;8.77;63.12;100993.06;5298953;27;20049;-88
2020/12/14 21:56:16;;;;;;;25.12;17.20;;;;;;;8.75;63.25;100990.44;5298363;27;20127;-88
2020/12/14 21:58:45;;;;;;;24.08;16.73;;;;;;;8.78;63.13;101000.06;5297065;27;20060;-88
2020/12/14 22:01:11;;;;;;;21.35;14.55;;;;;;;8.81;62.83;101000.09;5297463;27;20079;-88
2020/12/14 22:03:39;;;;;;;20.20;14.80;;;;;;;8.77;62.95;101001.81;5298833;27;20143;-88
2020/12/14 22:06:06;;;;;;;18.27;12.82;;;;;;;8.75;62.96;100994.78;5298732;27;20107;-88
2020/12/14 22:08:33;;;;;;;18.02;13.00;;;;;;;8.31;63.37;101000.34;5299027;27;20118;-88
2020/12/14 22:11:02;;;;;;;20.92;13.30;;;;;;;8.64;62.24;101006.00;5297720;27;20081;-88
2020/12/14 22:13:28;;;;;;;18.20;11.90;;;;;;;8.74;61.77;101007.03;5297120;27;20092;-88
2020/12/14 22:15:55;;;;;;;14.45;10.48;;;;;;;8.26;62.85;101015.97;5299158;27;20065;-88
2020/12/14 22:18:21;;;;;;;14.98;10.75;;;;;;;8.50;62.14;101011.94;5299273;27;20095;-88
2020/12/14 22:20:47;;;;;;;17.35;10.43;;;;;;;8.39;62.49;101011.84;5298730;27;20651;-88
2020/12/14 22:23:14;;;;;;;13.65;8.65;;;;;;;8.34;62.90;101008.22;5298697;27;20188;-88
2020/12/14 22:25:40;;;;;;;15.02;8.73;;;;;;;7.94;63.58;101012.91;5298865;27;20321;-88
2020/12/14 22:28:07;;;;;;;13.48;9.77;;;;;;;8.28;62.44;101009.03;5297211;27;20083;-88
2020/12/14 22:30:33;;;;;;;12.30;7.80;;;;;;;8.58;61.40;101010.31;5298479;27;20061;-88
2020/12/14 22:33:00;;;;;;;10.85;6.70;;;;;;;8.94;60.42;101007.25;5298800;27;20073;-88
2020/12/14 22:35:27;;;;;;;12.80;7.47;;;;;;;8.31;61.88;101008.19;5296960;27;20060;-88
2020/12/14 22:37:54;;;;;;;12.90;8.18;;;;;;;8.26;62.55;101012.47;5298837;27;20496;-88
2020/12/14 22:40:20;;;;;;;12.20;8.25;;;;;;;8.31;62.10;101001.22;5298619;27;20105;-89
2020/12/14 22:42:46;;;;;;;9.98;7.90;;;;;;;8.33;61.85;101007.34;5297074;27;20123;-88
2020/12/14 22:45:13;;;;;;;11.30;7.60;;;;;;;8.51;61.42;101005.88;5297012;27;20068;-88
2020/12/14 22:47:43;;;;;;;14.27;9.52;;;;;;;8.61;61.11;101005.09;5299002;27;20120;-88
2020/12/14 22:50:10;;;;;;;14.77;10.00;;;;;;;8.57;61.27;100996.34;5298444;27;20067;-88
2020/12/14 22:52:37;;;;;;;15.85;10.95;;;;;;;8.63;61.19;100996.41;5296994;27;20403;-88
2020/12/14 22:55:04;;;;;;;15.40;10.98;;;;;;;8.32;62.46;100989.87;5298638;27;20463;-88
2020/12/14 22:57:30;;;;;;;13.90;9.20;;;;;;;8.08;62.83;100994.78;5298636;27;20107;-88
2020/12/14 22:59:56;;;;;;;14.13;8.57;;;;;;;8.07;62.92;101001.75;5297093;27;20064;-88
2020/12/14 23:02:23;;;;;;;11.50;8.27;;;;;;;8.29;62.56;100989.81;5298490;27;20064;-88
2020/12/14 23:04:58;;;;;;;10.65;7.47;;;;;;;7.27;65.00;100995.28;5298524;27;20078;-88
2020/12/14 23:07:25;;;;;;;9.93;6.43;;;;;;;8.00;62.69;100996.41;5296925;27;20072;-88
2020/12/14 23:09:56;;;;;;;9.02;5.72;;;;;;;7.56;63.96;100987.06;5296971;27;20078;-88
2020/12/14 23:12:23;;;;;;;10.30;6.87;;;;;;;7.22;65.13;100990.84;5298237;27;20121;-88
2020/12/14 23:14:49;;;;;;;9.15;6.22;;;;;;;7.32;64.64;100986.63;5296907;27;20073;-88
2020/12/14 23:17:15;;;;;;;9.75;6.37;;;;;;;7.59;64.27;100980.97;5297164;27;20525;-88
2020/12/14 23:19:42;;;;;;;10.30;7.00;;;;;;;6.51;66.69;100994.75;5296962;27;20441;-88
2020/12/14 23:22:09;;;;;;;9.85;6.32;;;;;;;6.90;66.25;100975.47;5298360;27;20069;-88
2020/12/14 23:24:35;;;;;;;9.30;5.90;;;;;;;6.97;66.26;100984.28;5298563;27;20486;-87
2020/12/14 23:27:02;;;;;;;10.00;7.00;;;;;;;6.59;67.08;100984.47;5296831;27;20061;-88
2020/12/14 23:29:28;;;;;;;9.48;6.35;;;;;;;6.74;66.96;100976.91;5296916;27;20061;-88
2020/12/14 23:31:54;;;;;;;10.95;7.45;;;;;;;7.25;65.49;100972.59;5297043;27;20779;-88
2020/12/14 23:34:21;;;;;;;9.82;6.35;;;;;;;6.72;67.17;100975.13;5298093;27;20037;-88
2020/12/14 23:36:48;;;;;;;9.98;6.75;;;;;;;7.09;65.96;100976.69;5298502;27;20073;-88
2020/12/14 23:39:15;;;;;;;9.57;6.60;;;;;;;6.90;65.53;100980.69;5296900;27;20132;-87
2020/12/14 23:41:42;;;;;;;8.80;6.25;;;;;;;6.54;67.40;100975.66;5298420;27;20077;-88
2020/12/14 23:44:09;;;;;;;10.57;7.62;;;;;;;7.32;64.41;100976.19;5297266;27;20147;-88
2020/12/14 23:46:36;;;;;;;11.20;8.02;;;;;;;7.40;64.21;100975.44;5298809;27;20087;-88
2020/12/14 23:49:03;;;;;;;10.13;6.53;;;;;;;7.49;64.41;100969.50;5297119;27;20090;-88
2020/12/14 23:51:30;;;;;;;9.68;6.40;;;;;;;7.67;63.56;100961.94;5297115;27;20121;-87
2020/12/14 23:53:56;;;;;;;9.02;6.32;;;;;;;7.82;63.29;100963.00;5298752;27;20486;-88
2020/12/14 23:56:23;;;;;;;9.23;6.32;;;;;;;7.82;62.73;100965.63;5298370;27;20095;-88
2020/12/14 23:58:49;;;;;;;10.50;6.78;;;;;;;7.78;62.85;100961.22;5298768;27;20084;-88
